createdAt,value
2023-05-17T00:01:00.556Z,17.19
2023-05-17T00:03:27.214Z,17.17
2023-05-17T00:05:54.079Z,17.16
2023-05-17T00:08:21.560Z,17.13
2023-05-17T00:10:48.400Z,17.13
2023-05-17T00:13:15.343Z,17.12
2023-05-17T00:15:42.117Z,17.12
2023-05-17T00:18:08.984Z,17.12
2023-05-17T00:20:36.262Z,17.12
2023-05-17T00:23:03.491Z,17.12
2023-05-17T00:25:30.796Z,17.10
2023-05-17T00:27:57.943Z,17.10
2023-05-17T00:30:24.925Z,17.09
2023-05-17T00:32:52.050Z,17.08
2023-05-17T00:35:19.337Z,17.07
2023-05-17T00:37:47.479Z,17.03
2023-05-17T00:40:15.348Z,17.00
2023-05-17T00:42:42.605Z,16.99
2023-05-17T00:45:10.247Z,16.99
2023-05-17T00:47:37.681Z,16.99
2023-05-17T00:50:05.932Z,16.97
2023-05-17T00:52:32.820Z,16.96
2023-05-17T00:54:59.610Z,16.96
2023-05-17T00:57:28.608Z,16.96
2023-05-17T00:59:55.563Z,16.96
2023-05-17T01:02:24.132Z,16.96
2023-05-17T01:04:51.581Z,16.93
2023-05-17T01:07:19.071Z,16.93
2023-05-17T01:09:47.349Z,16.94
2023-05-17T01:12:40.194Z,16.90
2023-05-17T01:15:22.593Z,16.86
2023-05-17T01:18:08.563Z,16.83
2023-05-17T01:20:40.802Z,16.80
2023-05-17T01:23:26.429Z,16.78
2023-05-17T01:26:13.877Z,16.77
2023-05-17T01:28:40.792Z,16.77
2023-05-17T01:31:08.053Z,16.75
2023-05-17T01:33:37.458Z,16.72
2023-05-17T01:36:05.633Z,16.70
2023-05-17T01:38:32.732Z,16.68
2023-05-17T01:41:21.848Z,16.66
2023-05-17T01:44:02.506Z,16.61
2023-05-17T01:46:39.343Z,16.58
2023-05-17T01:49:10.843Z,16.58
2023-05-17T01:51:45.873Z,16.56
2023-05-17T01:54:12.570Z,16.55
2023-05-17T01:56:43.260Z,16.51
2023-05-17T01:59:10.871Z,16.45
2023-05-17T02:01:39.006Z,16.44
2023-05-17T02:04:06.187Z,16.42
2023-05-17T02:06:33.109Z,16.41
2023-05-17T02:09:02.309Z,16.39
2023-05-17T02:11:29.194Z,16.35
2023-05-17T02:13:56.155Z,16.34
2023-05-17T02:16:23.191Z,16.34
2023-05-17T02:18:50.266Z,16.35
2023-05-17T02:21:17.980Z,16.34
2023-05-17T02:23:45.426Z,16.33
2023-05-17T02:26:12.116Z,16.34
2023-05-17T02:28:39.232Z,16.34
2023-05-17T02:31:08.345Z,16.35
2023-05-17T02:33:35.734Z,16.34
2023-05-17T02:36:04.430Z,16.27
2023-05-17T02:38:31.345Z,16.24
2023-05-17T02:40:58.227Z,16.24
2023-05-17T02:43:25.169Z,16.22
2023-05-17T02:45:52.195Z,16.22
2023-05-17T02:48:19.112Z,16.24
2023-05-17T02:50:46.204Z,16.27
2023-05-17T02:53:13.222Z,16.26
2023-05-17T02:55:40.721Z,16.26
2023-05-17T02:58:07.719Z,16.26
2023-05-17T03:00:35.225Z,16.24
2023-05-17T03:03:02.182Z,16.20
2023-05-17T03:05:29.983Z,16.20
2023-05-17T03:07:57.106Z,16.20
2023-05-17T03:10:24.188Z,16.19
2023-05-17T03:12:51.621Z,16.15
2023-05-17T03:15:21.310Z,16.18
2023-05-17T03:17:48.263Z,16.20
2023-05-17T03:20:16.970Z,16.23
2023-05-17T03:22:45.667Z,16.20
2023-05-17T03:25:12.436Z,16.22
2023-05-17T03:27:40.329Z,16.21
2023-05-17T03:30:08.737Z,16.20
2023-05-17T03:32:39.839Z,16.21
2023-05-17T03:35:07.926Z,16.22
2023-05-17T03:37:35.395Z,16.17
2023-05-17T03:40:02.825Z,16.15
2023-05-17T03:42:30.049Z,16.16
2023-05-17T03:44:57.325Z,16.20
2023-05-17T03:47:24.915Z,16.25
2023-05-17T03:49:51.840Z,16.25
2023-05-17T03:52:18.893Z,16.22
2023-05-17T03:54:48.069Z,16.21
2023-05-17T03:57:16.275Z,16.25
2023-05-17T03:59:43.125Z,16.26
2023-05-17T04:02:10.363Z,16.28
2023-05-17T04:04:37.863Z,16.29
2023-05-17T04:07:06.135Z,16.34
2023-05-17T04:09:34.616Z,16.39
2023-05-17T04:12:01.768Z,16.44
2023-05-17T04:14:28.933Z,16.48
2023-05-17T04:16:56.207Z,16.53
2023-05-17T04:19:23.063Z,16.61
2023-05-17T04:21:51.453Z,16.68
2023-05-17T04:24:19.112Z,16.74
2023-05-17T04:26:46.437Z,16.81
2023-05-17T04:29:13.653Z,16.89
2023-05-17T04:31:40.565Z,16.94
2023-05-17T04:34:07.825Z,17.00
2023-05-17T04:36:35.089Z,17.06
2023-05-17T04:39:03.013Z,17.15
2023-05-17T04:41:31.414Z,17.29
2023-05-17T04:43:58.617Z,17.42
2023-05-17T04:46:30.541Z,17.60
2023-05-17T04:48:57.637Z,17.76
2023-05-17T04:51:24.576Z,17.90
2023-05-17T04:53:52.082Z,18.01
2023-05-17T04:56:19.053Z,18.11
2023-05-17T04:58:46.215Z,18.22
2023-05-17T05:01:13.315Z,18.31
2023-05-17T05:03:43.037Z,18.42
2023-05-17T05:06:11.577Z,18.56
2023-05-17T05:08:38.863Z,18.57
2023-05-17T05:11:07.342Z,18.52
2023-05-17T05:13:34.150Z,18.49
2023-05-17T05:16:01.384Z,18.52
2023-05-17T05:18:28.756Z,18.53
2023-05-17T05:20:56.735Z,18.65
2023-05-17T05:23:24.489Z,18.78
2023-05-17T05:25:51.768Z,18.92
2023-05-17T05:28:19.275Z,19.01
2023-05-17T05:30:46.548Z,19.04
2023-05-17T05:33:13.847Z,19.06
2023-05-17T05:35:40.923Z,19.14
2023-05-17T05:38:07.829Z,19.25
2023-05-17T05:40:35.715Z,19.37
2023-05-17T05:43:02.789Z,19.59
2023-05-17T05:45:29.869Z,19.80
2023-05-17T05:47:59.984Z,19.98
2023-05-17T05:50:30.777Z,20.03
2023-05-17T05:53:17.493Z,20.16
2023-05-17T05:55:49.941Z,20.22
2023-05-17T05:58:17.325Z,20.35
2023-05-17T06:00:44.848Z,20.53
2023-05-17T06:03:11.959Z,20.78
2023-05-17T06:05:39.843Z,20.91
2023-05-17T06:08:07.339Z,21.07
2023-05-17T06:10:34.869Z,21.17
2023-05-17T06:13:01.735Z,21.27
2023-05-17T06:15:30.905Z,21.59
2023-05-17T06:17:58.534Z,21.98
2023-05-17T06:20:25.683Z,22.46
2023-05-17T06:22:53.721Z,22.87
2023-05-17T06:25:20.536Z,22.97
2023-05-17T06:27:50.521Z,23.09
2023-05-17T06:30:17.558Z,22.91
2023-05-17T06:32:44.521Z,22.91
2023-05-17T06:35:11.640Z,23.06
2023-05-17T06:37:38.808Z,23.25
2023-05-17T06:40:16.047Z,23.01
2023-05-17T06:42:44.075Z,22.96
2023-05-17T06:45:11.986Z,22.90
2023-05-17T06:47:41.596Z,23.03
2023-05-17T06:50:09.124Z,23.04
2023-05-17T06:52:36.290Z,22.97
2023-05-17T06:55:03.493Z,23.12
2023-05-17T06:57:31.515Z,23.18
2023-05-17T06:59:58.300Z,23.10
2023-05-17T07:02:25.110Z,22.84
2023-05-17T07:04:52.389Z,22.87
2023-05-17T07:07:19.428Z,22.93
2023-05-17T07:09:46.370Z,22.92
2023-05-17T07:12:13.417Z,22.85
2023-05-17T07:14:40.520Z,22.58
2023-05-17T07:17:07.424Z,22.17
2023-05-17T07:19:34.362Z,22.09
2023-05-17T07:22:01.334Z,22.08
2023-05-17T07:24:28.558Z,22.03
2023-05-17T07:26:55.741Z,22.04
2023-05-17T07:29:22.622Z,21.89
2023-05-17T07:31:50.675Z,21.73
2023-05-17T07:34:18.035Z,21.85
2023-05-17T07:36:45.419Z,21.86
2023-05-17T07:39:12.753Z,21.83
2023-05-17T07:41:39.779Z,21.72
2023-05-17T07:44:06.901Z,21.60
2023-05-17T07:46:33.838Z,21.64
2023-05-17T07:49:00.973Z,21.73
2023-05-17T07:51:28.040Z,21.81
2023-05-17T07:53:54.987Z,22.10
2023-05-17T07:56:21.911Z,22.82
2023-05-17T07:58:48.835Z,23.39
2023-05-17T08:01:15.787Z,23.35
2023-05-17T08:03:47.433Z,23.22
2023-05-17T08:06:17.454Z,23.11
2023-05-17T08:08:47.806Z,23.04
2023-05-17T08:11:14.597Z,23.01
2023-05-17T08:13:41.672Z,23.10
2023-05-17T08:16:14.220Z,23.12
2023-05-17T08:18:42.714Z,23.00
2023-05-17T08:21:10.780Z,22.78
2023-05-17T08:23:37.666Z,22.60
2023-05-17T08:26:04.877Z,22.63
2023-05-17T08:28:34.315Z,23.21
2023-05-17T08:31:03.500Z,23.60
2023-05-17T08:33:30.960Z,23.91
2023-05-17T08:36:00.689Z,23.87
2023-05-17T08:38:27.528Z,23.63
2023-05-17T08:40:55.025Z,23.47
2023-05-17T08:43:25.819Z,23.23
2023-05-17T08:45:57.185Z,23.08
2023-05-17T08:48:30.473Z,22.76
2023-05-17T08:51:00.451Z,22.53
2023-05-17T08:53:27.496Z,22.37
2023-05-17T08:56:00.131Z,22.32
2023-05-17T08:58:34.085Z,22.27
2023-05-17T09:01:06.634Z,22.34
2023-05-17T09:03:34.745Z,22.18
2023-05-17T09:06:02.708Z,21.98
2023-05-17T09:08:32.486Z,21.85
2023-05-17T09:10:59.444Z,21.85
2023-05-17T09:13:27.092Z,21.89
2023-05-17T09:15:53.935Z,21.86
2023-05-17T09:18:32.200Z,21.75
2023-05-17T09:21:06.173Z,21.85
2023-05-17T09:23:33.399Z,21.97
2023-05-17T09:26:05.700Z,21.99
2023-05-17T09:28:52.929Z,22.06
2023-05-17T09:31:19.742Z,22.09
2023-05-17T09:33:51.095Z,22.06
2023-05-17T09:36:22.566Z,22.18
2023-05-17T09:38:59.109Z,22.35
2023-05-17T09:41:30.807Z,22.44
2023-05-17T09:44:01.264Z,22.45
2023-05-17T09:46:32.687Z,22.40
2023-05-17T09:49:01.673Z,22.44
2023-05-17T09:51:54.962Z,22.47
2023-05-17T09:54:22.430Z,22.57
2023-05-17T09:56:55.603Z,22.65
2023-05-17T09:59:22.549Z,22.61
2023-05-17T10:01:49.881Z,22.73
2023-05-17T10:04:19.951Z,22.77
2023-05-17T10:06:51.393Z,22.75
2023-05-17T10:09:21.666Z,22.76
2023-05-17T10:11:48.862Z,22.80
2023-05-17T10:14:26.796Z,22.88
2023-05-17T10:16:53.747Z,22.92
2023-05-17T10:19:21.332Z,22.95
2023-05-17T10:21:50.168Z,22.93
2023-05-17T10:24:17.263Z,22.86
2023-05-17T10:26:44.181Z,22.81
2023-05-17T10:29:11.160Z,22.81
2023-05-17T10:31:38.030Z,22.70
2023-05-17T10:34:06.023Z,22.64
2023-05-17T10:36:33.688Z,22.59
2023-05-17T10:39:01.372Z,22.54
2023-05-17T10:41:34.691Z,22.44
2023-05-17T10:44:03.997Z,22.45
2023-05-17T10:46:31.870Z,22.48
2023-05-17T10:48:59.838Z,22.48
2023-05-17T10:51:33.215Z,22.47
2023-05-17T10:54:17.907Z,22.42
2023-05-17T10:56:52.129Z,22.44
2023-05-17T10:59:24.124Z,22.50
2023-05-17T11:01:54.746Z,22.58
2023-05-17T11:04:25.107Z,22.57
2023-05-17T11:06:54.134Z,22.55
2023-05-17T11:09:22.551Z,22.59
2023-05-17T11:12:09.748Z,22.58
2023-05-17T11:14:46.153Z,22.62
2023-05-17T11:17:19.432Z,22.64
2023-05-17T11:19:56.563Z,22.66
2023-05-17T11:22:27.325Z,22.64
2023-05-17T11:24:56.767Z,22.65
2023-05-17T11:27:30.688Z,22.71
2023-05-17T11:29:59.662Z,22.73
2023-05-17T11:32:31.464Z,22.69
2023-05-17T11:35:01.569Z,22.64
2023-05-17T11:37:29.467Z,22.55
2023-05-17T11:40:04.756Z,22.58
2023-05-17T11:42:32.677Z,22.60
2023-05-17T11:45:02.808Z,22.60
2023-05-17T11:47:33.398Z,22.61
2023-05-17T11:50:01.870Z,22.55
2023-05-17T11:52:29.484Z,22.48
2023-05-17T11:54:57.476Z,22.47
2023-05-17T11:57:29.962Z,22.55
2023-05-17T12:00:00.992Z,22.62
2023-05-17T12:02:32.092Z,22.67
2023-05-17T12:04:59.349Z,22.66
2023-05-17T12:07:26.348Z,22.68
2023-05-17T12:09:53.155Z,22.70
2023-05-17T12:12:21.433Z,22.66
2023-05-17T12:14:48.263Z,22.64
2023-05-17T12:17:27.792Z,22.66
2023-05-17T12:19:55.100Z,22.70
2023-05-17T12:22:22.437Z,22.75
2023-05-17T12:24:49.424Z,22.77
2023-05-17T12:27:25.093Z,22.75
2023-05-17T12:29:52.674Z,22.73
2023-05-17T12:32:19.622Z,22.64
2023-05-17T12:34:47.395Z,22.71
2023-05-17T12:37:14.382Z,22.69
2023-05-17T12:39:41.131Z,22.64
2023-05-17T12:42:08.585Z,22.66
2023-05-17T12:44:37.053Z,22.73
2023-05-17T12:47:03.852Z,22.74
2023-05-17T12:49:31.079Z,22.71
2023-05-17T12:52:02.932Z,22.70
2023-05-17T12:54:30.003Z,22.64
2023-05-17T12:56:56.914Z,22.63
2023-05-17T12:59:28.258Z,22.68
2023-05-17T13:01:55.988Z,22.67
2023-05-17T13:04:37.224Z,22.68
2023-05-17T13:07:04.525Z,22.69
2023-05-17T13:09:32.871Z,22.67
2023-05-17T13:12:01.541Z,22.59
2023-05-17T13:14:45.238Z,22.56
2023-05-17T13:17:17.085Z,22.62
2023-05-17T13:19:44.065Z,22.68
2023-05-17T13:22:11.646Z,22.66
2023-05-17T13:24:39.348Z,22.60
2023-05-17T13:27:06.634Z,22.59
2023-05-17T13:29:39.379Z,22.58
2023-05-17T13:32:08.469Z,22.58
2023-05-17T13:34:35.648Z,22.64
2023-05-17T13:37:02.848Z,22.66
2023-05-17T13:39:29.753Z,22.61
2023-05-17T13:41:56.676Z,22.58
2023-05-17T13:44:23.627Z,22.57
2023-05-17T13:46:50.660Z,22.59
2023-05-17T13:49:17.909Z,22.57
2023-05-17T13:51:45.499Z,22.56
2023-05-17T13:54:12.346Z,22.55
2023-05-17T13:56:39.301Z,22.56
2023-05-17T13:59:06.360Z,22.54
2023-05-17T14:01:33.302Z,22.49
2023-05-17T14:04:00.612Z,22.49
2023-05-17T14:06:27.828Z,22.50
2023-05-17T14:08:55.353Z,22.48
2023-05-17T14:11:22.247Z,22.49
2023-05-17T14:13:49.281Z,22.52
2023-05-17T14:16:16.443Z,22.52
2023-05-17T14:18:43.333Z,22.50
2023-05-17T14:21:11.251Z,22.49
2023-05-17T14:23:38.541Z,22.47
2023-05-17T14:26:07.005Z,22.50
2023-05-17T14:28:37.216Z,22.52
2023-05-17T14:31:05.919Z,22.52
2023-05-17T14:33:33.395Z,22.48
2023-05-17T14:36:00.659Z,22.48
2023-05-17T14:38:27.575Z,22.48
2023-05-17T14:40:54.859Z,22.46
2023-05-17T14:43:22.039Z,22.42
2023-05-17T14:45:48.938Z,22.43
2023-05-17T14:48:16.162Z,22.43
2023-05-17T14:50:43.487Z,22.42
2023-05-17T14:53:10.420Z,22.40
2023-05-17T14:55:37.554Z,22.35
2023-05-17T14:58:04.733Z,22.34
2023-05-17T15:00:31.739Z,22.33
2023-05-17T15:02:58.712Z,22.29
2023-05-17T15:05:25.780Z,22.25
2023-05-17T15:07:52.936Z,22.25
2023-05-17T15:10:19.848Z,22.26
2023-05-17T15:12:47.048Z,22.27
2023-05-17T15:15:13.993Z,22.29
2023-05-17T15:17:41.186Z,22.28
2023-05-17T15:20:10.096Z,22.27
2023-05-17T15:22:37.256Z,22.24
2023-05-17T15:25:05.387Z,22.23
2023-05-17T15:27:32.656Z,22.21
2023-05-17T15:29:59.691Z,22.16
2023-05-17T15:32:26.591Z,22.14
2023-05-17T15:34:53.529Z,22.13
2023-05-17T15:37:20.355Z,22.12
2023-05-17T15:39:47.265Z,22.12
2023-05-17T15:42:14.063Z,22.08
2023-05-17T15:44:40.888Z,22.04
2023-05-17T15:47:07.657Z,22.02
2023-05-17T15:49:35.036Z,22.00
2023-05-17T15:52:02.434Z,21.99
2023-05-17T15:54:29.547Z,21.97
2023-05-17T15:56:56.363Z,21.91
2023-05-17T15:59:23.167Z,21.87
2023-05-17T16:01:50.055Z,21.85
2023-05-17T16:04:17.011Z,21.83
2023-05-17T16:06:44.344Z,21.81
2023-05-17T16:09:11.534Z,21.75
2023-05-17T16:11:38.548Z,21.71
2023-05-17T16:14:05.493Z,21.67
2023-05-17T16:16:32.696Z,21.62
2023-05-17T16:19:00.745Z,21.58
2023-05-17T16:21:27.826Z,21.55
2023-05-17T16:23:54.960Z,21.48
2023-05-17T16:26:21.808Z,21.47
2023-05-17T16:28:48.598Z,21.45
2023-05-17T16:31:15.506Z,21.41
2023-05-17T16:33:42.425Z,21.36
2023-05-17T16:36:11.760Z,21.31
2023-05-17T16:38:38.814Z,21.27
2023-05-17T16:41:05.966Z,21.22
2023-05-17T16:43:33.229Z,21.16
2023-05-17T16:46:00.592Z,21.09
2023-05-17T16:48:28.024Z,21.00
2023-05-17T16:50:56.030Z,20.96
2023-05-17T16:53:23.795Z,20.95
2023-05-17T16:55:50.601Z,20.87
2023-05-17T16:58:17.522Z,20.79
2023-05-17T17:00:44.644Z,20.72
2023-05-17T17:03:11.690Z,20.66
2023-05-17T17:05:38.645Z,20.61
2023-05-17T17:08:06.237Z,20.55
2023-05-17T17:10:35.520Z,20.51
2023-05-17T17:13:02.974Z,20.44
2023-05-17T17:15:30.002Z,20.37
2023-05-17T17:17:57.233Z,20.31
2023-05-17T17:20:24.547Z,20.26
2023-05-17T17:22:51.480Z,20.22
2023-05-17T17:25:18.657Z,20.19
2023-05-17T17:27:46.420Z,20.16
2023-05-17T17:30:13.473Z,20.12
2023-05-17T17:32:41.027Z,20.07
2023-05-17T17:35:08.787Z,20.03
2023-05-17T17:37:35.861Z,20.00
2023-05-17T17:40:03.430Z,19.96
2023-05-17T17:42:32.130Z,19.95
2023-05-17T17:44:59.172Z,19.91
2023-05-17T17:47:26.344Z,19.87
2023-05-17T17:49:53.577Z,19.85
2023-05-17T17:52:20.642Z,19.82
2023-05-17T17:54:47.591Z,19.80
2023-05-17T17:57:14.954Z,19.77
2023-05-17T17:59:41.842Z,19.73
2023-05-17T18:02:08.879Z,19.70
2023-05-17T18:04:35.721Z,19.64
2023-05-17T18:07:02.579Z,19.60
2023-05-17T18:09:29.716Z,19.57
2023-05-17T18:11:56.578Z,19.54
2023-05-17T18:14:23.524Z,19.51
2023-05-17T18:16:50.626Z,19.46
2023-05-17T18:19:17.755Z,19.42
2023-05-17T18:21:44.683Z,19.38
2023-05-17T18:24:12.023Z,19.34
2023-05-17T18:26:38.930Z,19.32
2023-05-17T18:29:05.942Z,19.31
2023-05-17T18:31:32.881Z,19.30
2023-05-17T18:33:59.833Z,19.26
2023-05-17T18:36:27.078Z,19.22
2023-05-17T18:38:58.048Z,19.19
2023-05-17T18:41:25.588Z,19.15
2023-05-17T18:43:52.519Z,19.13
2023-05-17T18:46:19.401Z,19.08
2023-05-17T18:48:46.196Z,19.06
2023-05-17T18:51:15.025Z,19.05
2023-05-17T18:53:41.969Z,19.03
2023-05-17T18:56:08.965Z,18.97
2023-05-17T18:58:36.520Z,18.94
2023-05-17T19:01:03.474Z,18.90
2023-05-17T19:03:30.925Z,18.87
2023-05-17T19:05:58.472Z,18.85
2023-05-17T19:08:25.351Z,18.83
2023-05-17T19:10:52.158Z,18.82
2023-05-17T19:13:19.486Z,18.80
2023-05-17T19:15:46.379Z,18.80
2023-05-17T19:18:13.623Z,18.79
2023-05-17T19:20:40.654Z,18.78
2023-05-17T19:23:12.325Z,18.76
2023-05-17T19:25:40.246Z,18.72
2023-05-17T19:28:08.776Z,18.70
2023-05-17T19:30:37.509Z,18.68
2023-05-17T19:33:06.837Z,18.66
2023-05-17T19:35:35.621Z,18.63
2023-05-17T19:38:02.449Z,18.60
2023-05-17T19:40:29.713Z,18.58
2023-05-17T19:42:57.948Z,18.53
2023-05-17T19:45:24.931Z,18.50
2023-05-17T19:47:52.948Z,18.49
2023-05-17T19:50:20.167Z,18.46
2023-05-17T19:52:47.114Z,18.43
2023-05-17T19:55:15.276Z,18.39
2023-05-17T19:57:42.554Z,18.37
2023-05-17T20:00:10.331Z,18.36
2023-05-17T20:02:37.882Z,18.33
2023-05-17T20:05:05.440Z,18.32
2023-05-17T20:07:32.852Z,18.31
2023-05-17T20:09:59.939Z,18.29
2023-05-17T20:12:27.020Z,18.28
2023-05-17T20:14:54.067Z,18.26
2023-05-17T20:17:20.936Z,18.25
2023-05-17T20:19:47.782Z,18.22
2023-05-17T20:22:14.618Z,18.21
2023-05-17T20:24:43.506Z,18.19
2023-05-17T20:27:11.084Z,18.18
2023-05-17T20:29:38.538Z,18.16
2023-05-17T20:32:05.669Z,18.15
2023-05-17T20:34:33.052Z,18.13
2023-05-17T20:37:00.607Z,18.11
2023-05-17T20:39:27.683Z,18.07
2023-05-17T20:41:55.124Z,18.04
2023-05-17T20:44:23.393Z,18.02
2023-05-17T20:46:50.732Z,17.99
2023-05-17T20:49:17.820Z,17.96
2023-05-17T20:51:44.961Z,17.93
2023-05-17T20:54:11.854Z,17.90
2023-05-17T20:56:39.576Z,17.87
2023-05-17T20:59:06.670Z,17.84
2023-05-17T21:01:33.697Z,17.82
2023-05-17T21:04:01.519Z,17.79
2023-05-17T21:06:32.319Z,17.78
2023-05-17T21:09:01.603Z,17.75
2023-05-17T21:11:29.073Z,17.73
2023-05-17T21:13:57.437Z,17.71
2023-05-17T21:16:24.257Z,17.69
2023-05-17T21:18:51.154Z,17.67
2023-05-17T21:21:18.336Z,17.65
2023-05-17T21:23:45.369Z,17.62
2023-05-17T21:26:12.697Z,17.60
2023-05-17T21:28:39.493Z,17.58
2023-05-17T21:31:06.502Z,17.56
2023-05-17T21:33:33.371Z,17.53
2023-05-17T21:36:00.422Z,17.51
2023-05-17T21:38:27.479Z,17.49
2023-05-17T21:40:55.033Z,17.46
2023-05-17T21:43:22.095Z,17.44
2023-05-17T21:45:49.343Z,17.42
2023-05-17T21:48:16.238Z,17.40
2023-05-17T21:50:43.065Z,17.38
2023-05-17T21:53:10.004Z,17.35
2023-05-17T21:55:56.340Z,17.33
2023-05-17T21:58:26.009Z,17.31
2023-05-17T22:00:53.480Z,17.29
2023-05-17T22:03:20.985Z,17.27
2023-05-17T22:05:48.718Z,17.24
2023-05-17T22:08:15.450Z,17.22
2023-05-17T22:10:43.110Z,17.20
2023-05-17T22:13:11.700Z,17.17
2023-05-17T22:15:38.507Z,17.15
2023-05-17T22:18:05.458Z,17.13
2023-05-17T22:20:32.574Z,17.11
2023-05-17T22:22:59.820Z,17.08
2023-05-17T22:25:26.496Z,17.06
2023-05-17T22:27:53.368Z,17.04
2023-05-17T22:30:20.196Z,17.01
2023-05-17T22:32:47.402Z,16.99
2023-05-17T22:35:14.455Z,16.97
2023-05-17T22:37:42.021Z,16.95
2023-05-17T22:40:10.207Z,16.92
2023-05-17T22:42:37.031Z,16.89
2023-05-17T22:45:04.444Z,16.87
2023-05-17T22:47:31.470Z,16.84
2023-05-17T22:50:00.266Z,16.81
2023-05-17T22:52:27.418Z,16.78
2023-05-17T22:54:54.471Z,16.76
2023-05-17T22:57:21.325Z,16.74
2023-05-17T22:59:48.200Z,16.71
2023-05-17T23:02:15.217Z,16.69
2023-05-17T23:04:45.342Z,16.66
2023-05-17T23:07:12.243Z,16.64
2023-05-17T23:09:39.959Z,16.62
2023-05-17T23:12:08.346Z,16.60
2023-05-17T23:14:36.124Z,16.59
2023-05-17T23:17:03.793Z,16.58
2023-05-17T23:19:32.390Z,16.57
2023-05-17T23:22:02.477Z,16.56
2023-05-17T23:24:29.612Z,16.54
2023-05-17T23:26:57.101Z,16.53
2023-05-17T23:29:25.592Z,16.53
2023-05-17T23:31:52.817Z,16.52
2023-05-17T23:34:20.409Z,16.52
2023-05-17T23:36:47.264Z,16.51
2023-05-17T23:39:15.264Z,16.49
2023-05-17T23:41:42.380Z,16.49
2023-05-17T23:44:09.446Z,16.49
2023-05-17T23:46:36.693Z,16.48
2023-05-17T23:49:03.934Z,16.47
2023-05-17T23:51:34.081Z,16.46
2023-05-17T23:54:01.140Z,16.45
2023-05-17T23:56:27.992Z,16.44
2023-05-17T23:58:54.910Z,16.42
